Time,TemperatureF,DewpointF,PressureIn,WindDirection,WindDirectionDegrees,WindSpeedMPH,WindSpeedGustMPH,Humidity,HourlyPrecipIn,Conditions,Clouds,dailyrainin,SoftwareType,DateUTC
2013-09-17 00:01:00,78.5,75.7,29.99,NE,40,0.0,0.0,91,0.00,RA,,0.00,WeatherDisplay:10.37,2013-09-17 04:01:00,
2013-09-17 00:02:00,78.5,75.7,29.99,NE,40,3.0,3.0,91,0.00,RA,,0.00,WeatherDisplay:10.37,2013-09-17 04:02:00,
2013-09-17 00:07:00,78.6,75.4,29.98,NE,40,3.5,3.5,90,0.00,RA,,0.00,WeatherDisplay:10.37,2013-09-17 04:07:00,
2013-09-17 00:12:00,78.7,75.5,29.98,NE,40,2.3,2.3,90,0.00,CLR,,0.00,WeatherDisplay:10.37,2013-09-17 04:12:00,
2013-09-17 00:17:00,78.7,75.5,29.98,NE,41,0.0,0.0,90,0.00,CLR,,0.00,WeatherDisplay:10.37,2013-09-17 04:17:00,
2013-09-17 00:22:00,78.8,75.6,29.98,NE,41,1.2,0.0,90,0.00,CLR,,0.00,WeatherDisplay:10.37,2013-09-17 04:22:00,
2013-09-17 00:27:00,78.8,75.6,29.98,NE,42,3.0,3.0,90,0.00,CLR,,0.00,WeatherDisplay:10.37,2013-09-17 04:27:00,
2013-09-17 00:32:00,78.8,75.3,29.98,NE,41,1.2,0.0,89,0.00,CLR,,0.00,WeatherDisplay:10.37,2013-09-17 04:32:00,
2013-09-17 00:37:00,78.9,75.4,29.98,NE,41,0.0,0.0,89,0.00,CLR,,0.00,WeatherDisplay:10.37,2013-09-17 04:37:00,
2013-09-17 00:42:00,78.9,75.4,29.97,NE,42,2.3,2.3,89,0.00,CLR,,0.00,WeatherDisplay:10.37,2013-09-17 04:42:00,
2013-09-17 00:47:00,79.0,75.5,29.97,NE,42,1.2,0.0,89,0.00,CLR,,0.00,WeatherDisplay:10.37,2013-09-17 04:47:00,
2013-09-17 00:52:00,79.0,75.5,29.97,NE,42,0.0,0.0,89,0.00,CLR,,0.00,WeatherDisplay:10.37,2013-09-17 04:52:00,
2013-09-17 00:57:00,79.0,75.5,29.97,NE,42,0.0,0.0,89,0.00,CLR,,0.00,WeatherDisplay:10.37,2013-09-17 04:57:00,
2013-09-17 01:02:00,79.0,75.5,29.97,NE,41,1.2,1.2,89,0.00,CLR,,0.00,WeatherDisplay:10.37,2013-09-17 05:02:00,
2013-09-17 01:07:00,79.1,75.6,29.96,NE,42,2.3,2.3,89,0.00,CLR,,0.00,WeatherDisplay:10.37,2013-09-17 05:07:00,
2013-09-17 01:12:00,79.1,75.6,29.96,NE,41,1.2,0.0,89,0.00,CLR,,0.00,WeatherDisplay:10.37,2013-09-17 05:12:00,
2013-09-17 01:17:00,79.1,75.6,29.96,NE,42,0.0,0.0,89,0.00,CLR,,0.00,WeatherDisplay:10.37,2013-09-17 05:17:00,
2013-09-17 01:22:00,79.1,75.6,29.96,NE,42,1.2,0.0,89,0.00,CLR,,0.00,WeatherDisplay:10.37,2013-09-17 05:22:00,
2013-09-17 01:27:00,79.1,75.6,29.96,NE,42,0.0,0.0,89,0.00,CLR,,0.00,WeatherDisplay:10.37,2013-09-17 05:27:00,
2013-09-17 01:32:00,79.0,75.5,29.96,NE,42,1.2,0.0,89,0.00,CLR,,0.00,WeatherDisplay:10.37,2013-09-17 05:32:00,
2013-09-17 01:37:00,79.0,75.5,29.96,NE,42,1.2,0.0,89,0.00,CLR,,0.00,WeatherDisplay:10.37,2013-09-17 05:37:00,
2013-09-17 01:42:00,79.0,75.5,29.95,NE,45,3.5,0.0,89,0.00,CLR,,0.00,WeatherDisplay:10.37,2013-09-17 05:42:00,
2013-09-17 01:47:00,79.0,75.5,29.95,NE,44,0.0,0.0,89,0.00,CLR,,0.00,WeatherDisplay:10.37,2013-09-17 05:47:00,
2013-09-17 01:52:00,79.0,75.5,29.95,NE,44,1.2,0.0,89,0.00,CLR,,0.00,WeatherDisplay:10.37,2013-09-17 05:52:00,
2013-09-17 01:54:00,79.0,75.5,29.95,NE,44,2.3,0.0,89,0.00,CLR,,0.00,WeatherDisplay:10.37,2013-09-17 05:54:00,
2013-09-17 01:57:00,79.0,75.5,29.95,NE,44,2.3,0.0,89,0.00,CLR,,0.00,WeatherDisplay:10.37,2013-09-17 05:57:00,
2013-09-17 02:07:00,79.0,75.5,29.95,NE,44,2.3,0.0,89,0.00,CLR,,0.00,WeatherDisplay:10.37,2013-09-17 06:07:00,
2013-09-17 02:09:00,78.9,75.4,29.94,NE,44,1.2,0.0,89,0.00,CLR,,0.00,WeatherDisplay:10.37,2013-09-17 06:09:00,
2013-09-17 02:12:00,78.9,75.4,29.94,NE,44,1.2,0.0,89,0.00,CLR,,0.00,WeatherDisplay:10.37,2013-09-17 06:12:00,
2013-09-17 02:23:00,78.7,75.2,29.94,NE,46,1.2,0.0,89,0.00,CLR,,0.00,WeatherDisplay:10.37,2013-09-17 06:23:00,
2013-09-17 02:28:00,78.7,75.2,29.94,NE,46,0.0,0.0,89,0.00,CLR,,0.00,WeatherDisplay:10.37,2013-09-17 06:28:00,
2013-09-17 02:33:00,78.7,75.2,29.94,NE,45,0.0,0.0,89,0.00,CLR,,0.00,WeatherDisplay:10.37,2013-09-17 06:33:00,
2013-09-17 02:38:00,78.5,75.0,29.94,NE,46,0.0,0.0,89,0.00,CLR,,0.00,WeatherDisplay:10.37,2013-09-17 06:38:00,
2013-09-17 02:43:00,78.4,74.9,29.94,NE,45,1.2,1.2,89,0.00,CLR,,0.00,WeatherDisplay:10.37,2013-09-17 06:43:00,
2013-09-17 02:48:00,78.3,75.1,29.94,NE,46,0.0,0.0,90,0.00,CLR,,0.00,WeatherDisplay:10.37,2013-09-17 06:48:00,
2013-09-17 02:53:00,78.4,75.2,29.94,NE,46,1.2,0.0,90,0.00,CLR,,0.00,WeatherDisplay:10.37,2013-09-17 06:53:00,
2013-09-17 02:58:00,78.4,75.2,29.94,NE,45,0.0,0.0,90,0.00,CLR,,0.00,WeatherDisplay:10.37,2013-09-17 06:58:00,
2013-09-17 03:03:00,78.5,75.3,29.94,NE,46,0.0,0.0,90,0.00,CLR,,0.00,WeatherDisplay:10.37,2013-09-17 07:03:00,
2013-09-17 03:08:00,78.5,75.3,29.94,NE,45,0.0,0.0,90,0.00,CLR,,0.00,WeatherDisplay:10.37,2013-09-17 07:08:00,
2013-09-17 03:13:00,78.4,75.2,29.94,NE,46,0.0,0.0,90,0.00,CLR,,0.00,WeatherDisplay:10.37,2013-09-17 07:13:00,
2013-09-17 03:18:00,78.3,75.1,29.94,NE,45,0.0,0.0,90,0.00,CLR,,0.00,WeatherDisplay:10.37,2013-09-17 07:18:00,
2013-09-17 03:23:00,78.2,75.0,29.93,NE,46,0.0,0.0,90,0.00,CLR,,0.00,WeatherDisplay:10.37,2013-09-17 07:23:00,
2013-09-17 03:28:00,78.0,74.8,29.93,NE,46,0.0,0.0,90,0.00,CLR,,0.00,WeatherDisplay:10.37,2013-09-17 07:28:00,
2013-09-17 03:33:00,77.8,75.0,29.93,NE,46,0.0,0.0,91,0.00,CLR,,0.00,WeatherDisplay:10.37,2013-09-17 07:33:00,
2013-09-17 03:38:00,77.5,74.7,29.93,NE,45,0.0,0.0,91,0.00,CLR,,0.00,WeatherDisplay:10.37,2013-09-17 07:38:00,
2013-09-17 03:43:00,77.3,74.5,29.93,NE,46,0.0,0.0,91,0.00,CLR,,0.00,WeatherDisplay:10.37,2013-09-17 07:43:00,
2013-09-17 03:48:00,77.1,74.3,29.93,NE,45,0.0,0.0,91,0.00,CLR,,0.00,WeatherDisplay:10.37,2013-09-17 07:48:00,
2013-09-17 03:53:00,76.8,74.3,29.93,NE,45,0.0,0.0,92,0.00,CLR,,0.00,WeatherDisplay:10.37,2013-09-17 07:53:00,
2013-09-17 03:58:00,76.6,74.4,29.93,NE,45,0.0,0.0,93,0.00,CLR,,0.00,WeatherDisplay:10.37,2013-09-17 07:58:00,
2013-09-17 04:03:00,76.5,74.3,29.93,NE,46,0.0,0.0,93,0.00,CLR,,0.00,WeatherDisplay:10.37,2013-09-17 08:03:00,
2013-09-17 04:09:00,76.3,74.1,29.93,NE,46,0.0,0.0,93,0.00,CLR,,0.00,WeatherDisplay:10.37,2013-09-17 08:09:00,
2013-09-17 04:14:00,76.2,74.0,29.93,NE,46,0.0,0.0,93,0.00,CLR,,0.00,WeatherDisplay:10.37,2013-09-17 08:14:00,
2013-09-17 04:19:00,76.1,74.2,29.93,NE,46,0.0,0.0,94,0.00,CLR,,0.00,WeatherDisplay:10.37,2013-09-17 08:19:00,
2013-09-17 04:24:00,76.1,74.2,29.93,NE,46,0.0,0.0,94,0.00,CLR,,0.00,WeatherDisplay:10.37,2013-09-17 08:24:00,
2013-09-17 04:29:00,76.1,74.2,29.93,NE,46,0.0,0.0,94,0.00,CLR,,0.00,WeatherDisplay:10.37,2013-09-17 08:29:00,
2013-09-17 04:34:00,76.0,74.1,29.93,NE,45,0.0,0.0,94,0.00,CLR,,0.00,WeatherDisplay:10.37,2013-09-17 08:34:00,
2013-09-17 04:39:00,76.0,74.5,29.93,NE,46,0.0,0.0,95,0.00,CLR,,0.00,WeatherDisplay:10.37,2013-09-17 08:39:00,
2013-09-17 04:44:00,75.9,74.4,29.93,NE,46,0.0,0.0,95,0.00,CLR,,0.00,WeatherDisplay:10.37,2013-09-17 08:44:00,
2013-09-17 04:49:00,75.9,74.4,29.93,NE,45,0.0,0.0,95,0.00,CLR,,0.00,WeatherDisplay:10.37,2013-09-17 08:49:00,
2013-09-17 04:54:00,75.8,74.3,29.93,NE,45,0.0,0.0,95,0.00,CLR,,0.00,WeatherDisplay:10.37,2013-09-17 08:54:00,
2013-09-17 04:59:00,75.8,74.3,29.93,NE,46,0.0,0.0,95,0.00,CLR,,0.00,WeatherDisplay:10.37,2013-09-17 08:59:00,
2013-09-17 05:04:00,75.8,74.3,29.93,NE,45,0.0,0.0,95,0.00,CLR,,0.00,WeatherDisplay:10.37,2013-09-17 09:04:00,
2013-09-17 05:09:00,75.7,74.2,29.93,NE,45,0.0,0.0,95,0.00,CLR,,0.00,WeatherDisplay:10.37,2013-09-17 09:09:00,
2013-09-17 05:14:00,75.6,74.1,29.92,NE,45,0.0,0.0,95,0.00,CLR,,0.00,WeatherDisplay:10.37,2013-09-17 09:14:00,
2013-09-17 05:19:00,75.6,74.1,29.92,NE,46,0.0,0.0,95,0.00,CLR,,0.00,WeatherDisplay:10.37,2013-09-17 09:19:00,
2013-09-17 05:24:00,75.5,74.0,29.92,NE,45,0.0,0.0,95,0.00,CLR,,0.00,WeatherDisplay:10.37,2013-09-17 09:24:00,
2013-09-17 05:29:00,75.4,73.9,29.92,NE,46,0.0,0.0,95,0.00,CLR,,0.00,WeatherDisplay:10.37,2013-09-17 09:29:00,
2013-09-17 05:34:00,75.4,73.9,29.92,NE,45,0.0,0.0,95,0.00,CLR,,0.00,WeatherDisplay:10.37,2013-09-17 09:34:00,
2013-09-17 05:39:00,75.3,74.1,29.92,NE,46,0.0,0.0,96,0.00,CLR,,0.00,WeatherDisplay:10.37,2013-09-17 09:39:00,
2013-09-17 05:44:00,75.2,74.0,29.93,NE,46,0.0,0.0,96,0.00,CLR,,0.00,WeatherDisplay:10.37,2013-09-17 09:44:00,
2013-09-17 05:49:00,75.2,74.0,29.93,NE,45,0.0,0.0,96,0.00,CLR,,0.00,WeatherDisplay:10.37,2013-09-17 09:49:00,
2013-09-17 05:54:00,75.1,73.9,29.93,NE,46,0.0,0.0,96,0.00,CLR,,0.00,WeatherDisplay:10.37,2013-09-17 09:54:00,
2013-09-17 05:59:00,75.1,73.9,29.94,NE,46,0.0,0.0,96,0.00,CLR,,0.00,WeatherDisplay:10.37,2013-09-17 09:59:00,
2013-09-17 06:04:00,75.1,73.9,29.94,NE,45,0.0,0.0,96,0.00,CLR,,0.00,WeatherDisplay:10.37,2013-09-17 10:04:00,
2013-09-17 06:09:00,75.1,73.9,29.94,NE,46,0.0,0.0,96,0.00,CLR,,0.00,WeatherDisplay:10.37,2013-09-17 10:09:00,
2013-09-17 06:14:00,75.1,73.9,29.94,NE,46,0.0,0.0,96,0.00,CLR,,0.00,WeatherDisplay:10.37,2013-09-17 10:14:00,
2013-09-17 06:19:00,75.1,73.9,29.94,NE,46,0.0,0.0,96,0.00,CLR,,0.00,WeatherDisplay:10.37,2013-09-17 10:19:00,
2013-09-17 06:24:00,75.1,73.9,29.94,NE,45,0.0,0.0,96,0.00,CLR,,0.00,WeatherDisplay:10.37,2013-09-17 10:24:00,
2013-09-17 06:29:00,75.1,73.9,29.94,NE,45,0.0,0.0,96,0.00,CLR,,0.00,WeatherDisplay:10.37,2013-09-17 10:29:00,
2013-09-17 06:34:00,75.2,74.0,29.94,NE,45,0.0,0.0,96,0.00,CLR,,0.00,WeatherDisplay:10.37,2013-09-17 10:34:00,
2013-09-17 06:39:00,75.3,74.1,29.94,NE,46,0.0,0.0,96,0.00,CLR,,0.00,WeatherDisplay:10.37,2013-09-17 10:39:00,
2013-09-17 06:44:00,75.5,74.3,29.95,NE,46,1.2,0.0,96,0.00,CLR,,0.00,WeatherDisplay:10.37,2013-09-17 10:44:00,
2013-09-17 06:49:00,75.7,74.8,29.95,NE,46,1.0,1.0,97,0.00,CLR,,0.00,WeatherDisplay:10.37,2013-09-17 10:49:00,
2013-09-17 06:54:00,75.8,74.9,29.95,NE,45,1.2,0.0,97,0.00,CLR,,0.00,WeatherDisplay:10.37,2013-09-17 10:54:00,
2013-09-17 06:59:00,75.9,75.0,29.95,NE,45,0.0,0.0,97,0.00,CLR,,0.00,WeatherDisplay:10.37,2013-09-17 10:59:00,
2013-09-17 07:04:00,75.9,75.0,29.95,NE,46,0.0,0.0,97,0.00,CLR,,0.00,WeatherDisplay:10.37,2013-09-17 11:04:00,
2013-09-17 07:09:00,76.0,75.1,29.95,NE,46,1.2,0.0,97,0.00,CLR,,0.00,WeatherDisplay:10.37,2013-09-17 11:09:00,
2013-09-17 07:14:00,75.9,75.0,29.95,NE,46,0.0,0.0,97,0.00,CLR,,0.00,WeatherDisplay:10.37,2013-09-17 11:14:00,
2013-09-17 07:19:00,75.8,74.9,29.95,NE,46,0.0,0.0,97,0.00,CLR,,0.00,WeatherDisplay:10.37,2013-09-17 11:19:00,
2013-09-17 07:24:00,75.6,74.4,29.95,NE,45,0.0,0.0,96,0.00,CLR,,0.00,WeatherDisplay:10.37,2013-09-17 11:24:00,
2013-09-17 07:29:00,75.3,74.1,29.95,NE,46,0.0,0.0,96,0.00,CLR,,0.00,WeatherDisplay:10.37,2013-09-17 11:29:00,
2013-09-17 07:34:00,75.1,73.9,29.96,NE,46,0.0,0.0,96,0.00,CLR,,0.00,WeatherDisplay:10.37,2013-09-17 11:34:00,
2013-09-17 07:39:00,75.1,73.9,29.96,NE,45,0.0,0.0,96,0.00,CLR,,0.00,WeatherDisplay:10.37,2013-09-17 11:39:00,
2013-09-17 07:44:00,74.9,73.7,29.96,NE,46,0.0,0.0,96,0.00,CLR,,0.00,WeatherDisplay:10.37,2013-09-17 11:44:00,
2013-09-17 07:49:00,74.9,73.7,29.97,NE,53,4.6,4.6,96,0.00,CLR,,0.00,WeatherDisplay:10.37,2013-09-17 11:49:00,
2013-09-17 07:54:00,75.1,73.9,29.97,NE,52,1.2,1.2,96,0.01,RA,,0.01,WeatherDisplay:10.37,2013-09-17 11:54:00,
2013-09-17 07:59:00,75.2,74.0,29.96,NE,53,0.0,0.0,96,0.01,RA,,0.01,WeatherDisplay:10.37,2013-09-17 11:59:00,
2013-09-17 08:04:00,75.4,74.2,29.97,NE,53,0.0,0.0,96,0.01,RA,,0.01,WeatherDisplay:10.37,2013-09-17 12:04:00,
2013-09-17 08:09:00,75.5,74.3,29.97,NE,51,0.0,0.0,96,0.01,CLR,,0.01,WeatherDisplay:10.37,2013-09-17 12:09:00,
2013-09-17 08:14:00,75.6,74.4,29.97,NE,52,0.0,0.0,96,0.01,CLR,,0.01,WeatherDisplay:10.37,2013-09-17 12:14:00,
2013-09-17 08:19:00,75.6,74.4,29.97,NE,53,0.0,0.0,96,0.01,CLR,,0.01,WeatherDisplay:10.37,2013-09-17 12:19:00,
2013-09-17 08:24:00,75.7,74.5,29.97,NE,53,0.0,0.0,96,0.01,CLR,,0.01,WeatherDisplay:10.37,2013-09-17 12:24:00,
2013-09-17 08:29:00,75.7,74.5,29.97,NE,53,0.0,0.0,96,0.01,CLR,,0.01,WeatherDisplay:10.37,2013-09-17 12:29:00,
2013-09-17 08:34:00,75.8,74.6,29.98,NE,53,0.0,0.0,96,0.01,CLR,,0.01,WeatherDisplay:10.37,2013-09-17 12:34:00,
2013-09-17 08:39:00,75.8,74.6,29.98,NE,54,0.0,0.0,96,0.01,CLR,,0.01,WeatherDisplay:10.37,2013-09-17 12:39:00,
2013-09-17 08:44:00,75.9,75.0,29.98,NE,52,0.0,0.0,97,0.01,CLR,,0.01,WeatherDisplay:10.37,2013-09-17 12:44:00,
2013-09-17 08:49:00,76.0,75.1,29.98,NE,53,0.0,0.0,97,0.02,RA,,0.02,WeatherDisplay:10.37,2013-09-17 12:49:00,
2013-09-17 08:54:00,76.1,74.9,29.99,NE,51,1.2,1.2,96,0.03,RA,,0.03,WeatherDisplay:10.37,2013-09-17 12:54:00,
2013-09-17 08:59:00,76.1,74.9,29.98,NE,53,0.0,0.0,96,0.02,RA,,0.03,WeatherDisplay:10.37,2013-09-17 12:59:00,
2013-09-17 09:04:00,76.1,74.9,29.99,NE,53,0.0,0.0,96,0.03,RA,,0.04,WeatherDisplay:10.37,2013-09-17 13:04:00,
2013-09-17 09:09:00,75.9,75.0,29.99,NE,52,0.0,0.0,97,0.03,RA,,0.04,WeatherDisplay:10.37,2013-09-17 13:09:00,
2013-09-17 09:14:00,75.9,75.0,29.99,NE,52,0.0,0.0,97,0.03,,,0.04,WeatherDisplay:10.37,2013-09-17 13:14:00,
2013-09-17 09:19:00,75.6,74.4,29.99,NE,53,1.2,1.2,96,0.03,CLR,,0.04,WeatherDisplay:10.37,2013-09-17 13:19:00,
2013-09-17 09:24:00,75.6,74.4,29.98,NE,53,1.2,1.2,96,0.03,CLR,,0.04,WeatherDisplay:10.37,2013-09-17 13:24:00,
2013-09-17 09:29:00,75.5,74.3,29.99,NE,53,0.0,0.0,96,0.04,RA,,0.05,WeatherDisplay:10.37,2013-09-17 13:29:00,
2013-09-17 09:34:00,75.3,74.1,29.99,NE,52,0.0,0.0,96,0.04,RA,,0.05,WeatherDisplay:10.37,2013-09-17 13:34:00,
2013-09-17 09:39:00,75.6,74.4,30.00,ENE,70,6.0,6.0,96,0.04,CLR,,0.05,WeatherDisplay:10.37,2013-09-17 13:39:00,
2013-09-17 09:44:00,75.7,74.5,30.00,East,90,4.0,4.0,96,0.04,CLR,,0.05,WeatherDisplay:10.37,2013-09-17 13:44:00,
2013-09-17 09:49:00,75.9,74.7,30.00,East,90,3.5,3.5,96,0.03,CLR,,0.05,WeatherDisplay:10.37,2013-09-17 13:49:00,
2013-09-17 09:54:00,76.1,74.9,30.00,East,89,1.2,1.2,96,0.03,RA,,0.06,WeatherDisplay:10.37,2013-09-17 13:54:00,
2013-09-17 09:59:00,75.9,74.7,30.01,East,90,3.5,3.5,96,0.04,RA,,0.07,WeatherDisplay:10.37,2013-09-17 13:59:00,
2013-09-17 10:04:00,75.7,74.5,30.00,East,93,1.2,1.2,96,0.05,RA,,0.09,WeatherDisplay:10.37,2013-09-17 14:04:00,
2013-09-17 10:09:00,75.3,74.1,30.00,East,92,0.0,0.0,96,0.06,RA,,0.10,WeatherDisplay:10.37,2013-09-17 14:09:00,
2013-09-17 10:14:00,74.9,73.7,30.01,East,92,0.0,0.0,96,0.07,RA,,0.11,WeatherDisplay:10.37,2013-09-17 14:14:00,
2013-09-17 10:19:00,74.9,73.7,30.01,East,90,0.0,0.0,96,0.07,RA,,0.11,WeatherDisplay:10.37,2013-09-17 14:19:00,
2013-09-17 10:24:00,74.9,73.7,30.01,East,93,0.0,0.0,96,0.07,CLR,,0.11,WeatherDisplay:10.37,2013-09-17 14:24:00,
2013-09-17 10:29:00,75.1,73.9,30.01,East,92,0.0,0.0,96,0.06,CLR,,0.11,WeatherDisplay:10.37,2013-09-17 14:29:00,
2013-09-17 10:34:00,75.3,74.1,30.00,East,93,0.0,0.0,96,0.06,CLR,,0.11,WeatherDisplay:10.37,2013-09-17 14:34:00,
2013-09-17 10:39:00,76.0,74.8,30.00,East,91,0.0,0.0,96,0.06,CLR,,0.11,WeatherDisplay:10.37,2013-09-17 14:39:00,
2013-09-17 10:44:00,76.7,75.5,30.00,East,92,0.0,0.0,96,0.06,CLR,,0.11,WeatherDisplay:10.37,2013-09-17 14:44:00,
2013-09-17 10:49:00,77.2,76.0,30.00,East,91,0.0,0.0,96,0.06,CLR,,0.11,WeatherDisplay:10.37,2013-09-17 14:49:00,
2013-09-17 10:54:00,78.2,77.0,30.00,East,92,2.0,2.0,96,0.06,CLR,,0.11,WeatherDisplay:10.37,2013-09-17 14:54:00,
2013-09-17 10:59:00,79.4,78.5,30.00,East,93,0.0,0.0,97,0.04,CLR,,0.11,WeatherDisplay:10.37,2013-09-17 14:59:00,
2013-09-17 11:04:00,80.8,79.9,30.00,East,94,2.3,2.3,97,0.02,CLR,,0.11,WeatherDisplay:10.37,2013-09-17 15:04:00,
2013-09-17 11:09:00,82.0,81.1,30.00,East,93,3.5,3.5,97,0.01,CLR,,0.11,WeatherDisplay:10.37,2013-09-17 15:09:00,
2013-09-17 11:14:00,81.9,80.6,30.00,East,92,4.0,4.0,96,0.00,CLR,,0.11,WeatherDisplay:10.37,2013-09-17 15:14:00,
2013-09-17 11:19:00,82.3,80.4,30.00,East,87,2.3,2.3,94,0.00,CLR,,0.11,WeatherDisplay:10.37,2013-09-17 15:19:00,
2013-09-17 11:24:00,83.0,80.4,30.01,East,80,4.0,4.0,92,0.00,CLR,,0.11,WeatherDisplay:10.37,2013-09-17 15:24:00,
2013-09-17 11:29:00,83.8,79.9,30.01,ENE,74,4.0,4.0,88,0.00,CLR,,0.11,WeatherDisplay:10.37,2013-09-17 15:29:00,
2013-09-17 11:34:00,84.4,79.4,30.01,ENE,74,3.5,3.5,85,0.00,CLR,,0.11,WeatherDisplay:10.37,2013-09-17 15:34:00,
2013-09-17 11:39:00,85.1,79.7,30.01,ENE,66,5.8,5.8,84,0.00,CLR,,0.11,WeatherDisplay:10.37,2013-09-17 15:39:00,
2013-09-17 11:44:00,85.5,78.2,30.01,ENE,65,2.3,0.0,79,0.00,CLR,,0.11,WeatherDisplay:10.37,2013-09-17 15:44:00,
2013-09-17 11:49:00,86.0,79.5,30.02,ENE,65,3.0,3.0,81,0.00,CLR,,0.11,WeatherDisplay:10.37,2013-09-17 15:49:00,
2013-09-17 11:54:00,86.7,79.8,30.02,ENE,62,6.9,6.9,80,0.00,CLR,,0.11,WeatherDisplay:10.37,2013-09-17 15:54:00,
2013-09-17 11:59:00,87.1,79.4,30.02,ENE,61,3.5,3.5,78,0.00,CLR,,0.11,WeatherDisplay:10.37,2013-09-17 15:59:00,
2013-09-17 12:04:00,87.4,80.1,30.02,ENE,61,3.5,3.5,79,0.00,CLR,,0.11,WeatherDisplay:10.37,2013-09-17 16:04:00,
2013-09-17 12:09:00,87.4,79.3,30.02,ENE,61,3.5,3.5,77,0.00,CLR,,0.11,WeatherDisplay:10.37,2013-09-17 16:09:00,
2013-09-17 12:14:00,87.4,79.7,30.02,NE,54,9.2,9.2,78,0.00,CLR,,0.11,WeatherDisplay:10.37,2013-09-17 16:14:00,
2013-09-17 12:19:00,87.1,79.0,30.02,NE,51,10.0,10.0,77,0.00,CLR,,0.11,WeatherDisplay:10.37,2013-09-17 16:19:00,
2013-09-17 12:24:00,86.6,78.9,30.02,NE,49,5.8,5.8,78,0.00,CLR,,0.11,WeatherDisplay:10.37,2013-09-17 16:24:00,
2013-09-17 12:29:00,86.2,78.5,30.01,NE,53,6.9,6.9,78,0.00,CLR,,0.11,WeatherDisplay:10.37,2013-09-17 16:29:00,
2013-09-17 12:34:00,86.3,78.6,30.01,NE,55,6.0,6.0,78,0.00,CLR,,0.11,WeatherDisplay:10.37,2013-09-17 16:34:00,
2013-09-17 12:39:00,86.6,79.3,30.01,NE,55,5.0,5.0,79,0.00,CLR,,0.11,WeatherDisplay:10.37,2013-09-17 16:39:00,
2013-09-17 12:44:00,86.7,79.0,30.00,NE,53,5.0,5.0,78,0.00,CLR,,0.11,WeatherDisplay:10.37,2013-09-17 16:44:00,
2013-09-17 12:49:00,86.7,78.6,30.00,NE,49,6.9,6.9,77,0.00,CLR,,0.11,WeatherDisplay:10.37,2013-09-17 16:49:00,
2013-09-17 12:54:00,86.7,78.6,30.00,NE,53,5.8,5.8,77,0.00,CLR,,0.11,WeatherDisplay:10.37,2013-09-17 16:54:00,
2013-09-17 12:59:00,87.0,78.9,29.99,NE,53,7.0,7.0,77,0.00,CLR,,0.11,WeatherDisplay:10.37,2013-09-17 16:59:00,
2013-09-17 13:04:00,87.3,78.8,29.99,NE,55,5.0,5.0,76,0.00,CLR,,0.11,WeatherDisplay:10.37,2013-09-17 17:04:00,
2013-09-17 13:09:00,87.6,78.7,29.99,NE,52,9.2,9.2,75,0.00,CLR,,0.11,WeatherDisplay:10.37,2013-09-17 17:09:00,
2013-09-17 13:15:00,87.6,77.9,29.99,NE,48,6.0,6.0,73,0.00,CLR,,0.11,WeatherDisplay:10.37,2013-09-17 17:15:00,
2013-09-17 13:20:00,87.3,77.6,29.99,NE,47,4.6,4.6,73,0.00,CLR,,0.11,WeatherDisplay:10.37,2013-09-17 17:20:00,
2013-09-17 13:25:00,87.1,78.2,29.99,NE,48,4.6,4.6,75,0.00,CLR,,0.11,WeatherDisplay:10.37,2013-09-17 17:25:00,
2013-09-17 13:30:00,86.5,77.6,29.99,NE,50,4.6,4.6,75,0.00,CLR,,0.11,WeatherDisplay:10.37,2013-09-17 17:30:00,
2013-09-17 13:35:00,86.2,77.7,29.99,NE,49,3.5,3.5,76,0.00,CLR,,0.11,WeatherDisplay:10.37,2013-09-17 17:35:00,
2013-09-17 13:40:00,85.9,77.1,29.98,NE,48,6.0,6.0,75,0.00,CLR,,0.11,WeatherDisplay:10.37,2013-09-17 17:40:00,
2013-09-17 13:45:00,85.6,77.6,29.98,NE,48,4.0,4.0,77,0.00,CLR,,0.11,WeatherDisplay:10.37,2013-09-17 17:45:00,
2013-09-17 13:50:00,85.2,77.2,29.98,NE,49,4.6,4.6,77,0.00,CLR,,0.11,WeatherDisplay:10.37,2013-09-17 17:50:00,
2013-09-17 13:55:00,84.9,77.7,29.98,NE,50,1.2,1.2,79,0.00,CLR,,0.11,WeatherDisplay:10.37,2013-09-17 17:55:00,
2013-09-17 14:00:00,84.7,77.5,29.98,NE,51,10.4,10.4,79,0.00,CLR,,0.11,WeatherDisplay:10.37,2013-09-17 18:00:00,
2013-09-17 14:05:00,84.4,77.2,29.98,NE,51,5.8,5.8,79,0.00,CLR,,0.11,WeatherDisplay:10.37,2013-09-17 18:05:00,
2013-09-17 14:10:00,84.1,76.9,29.97,NE,50,9.2,9.2,79,0.00,CLR,,0.11,WeatherDisplay:10.37,2013-09-17 18:10:00,
2013-09-17 14:15:00,83.9,77.1,29.97,NE,48,10.4,10.4,80,0.00,CLR,,0.11,WeatherDisplay:10.37,2013-09-17 18:15:00,
2013-09-17 14:20:00,83.8,77.0,29.97,NE,46,9.2,9.2,80,0.00,CLR,,0.11,WeatherDisplay:10.37,2013-09-17 18:20:00,
2013-09-17 14:25:00,83.8,77.0,29.97,NE,46,3.5,3.5,80,0.00,CLR,,0.11,WeatherDisplay:10.37,2013-09-17 18:25:00,
2013-09-17 14:30:00,84.1,78.4,29.97,NE,45,3.5,3.5,83,0.00,CLR,,0.11,WeatherDisplay:10.37,2013-09-17 18:30:00,
2013-09-17 14:35:00,84.2,78.1,29.96,NE,45,3.5,3.5,82,0.00,CLR,,0.11,WeatherDisplay:10.37,2013-09-17 18:35:00,
2013-09-17 14:40:00,84.1,77.3,29.96,NE,46,6.0,6.0,80,0.00,CLR,,0.11,WeatherDisplay:10.37,2013-09-17 18:40:00,
2013-09-17 14:45:00,84.1,77.3,29.96,NE,44,7.0,7.0,80,0.00,CLR,,0.11,WeatherDisplay:10.37,2013-09-17 18:45:00,
2013-09-17 14:50:00,83.9,77.1,29.96,NE,44,0.0,0.0,80,0.00,CLR,,0.11,WeatherDisplay:10.37,2013-09-17 18:50:00,
2013-09-17 14:55:00,83.8,77.0,29.96,NE,44,4.6,4.6,80,0.00,CLR,,0.11,WeatherDisplay:10.37,2013-09-17 18:55:00,
2013-09-17 15:00:00,83.9,77.1,29.96,NE,44,9.0,9.0,80,0.00,CLR,,0.11,WeatherDisplay:10.37,2013-09-17 19:00:00,
2013-09-17 15:05:00,83.9,77.4,29.96,NE,44,4.0,4.0,81,0.00,CLR,,0.11,WeatherDisplay:10.37,2013-09-17 19:05:00,
2013-09-17 15:10:00,83.8,77.3,29.96,NE,43,3.5,3.5,81,0.00,CLR,,0.11,WeatherDisplay:10.37,2013-09-17 19:10:00,
2013-09-17 15:15:00,83.7,77.2,29.96,NE,41,5.8,5.8,81,0.00,CLR,,0.11,WeatherDisplay:10.37,2013-09-17 19:15:00,
2013-09-17 15:20:00,83.6,77.5,29.96,NE,42,3.5,3.5,82,0.00,CLR,,0.11,WeatherDisplay:10.37,2013-09-17 19:20:00,
2013-09-17 15:26:00,83.6,77.5,29.96,NE,44,6.0,6.0,82,0.00,CLR,,0.11,WeatherDisplay:10.37,2013-09-17 19:26:00,
2013-09-17 15:31:00,83.6,77.5,29.96,NE,46,6.9,6.9,82,0.00,CLR,,0.11,WeatherDisplay:10.37,2013-09-17 19:31:00,
2013-09-17 15:36:00,83.6,77.1,29.95,NE,51,7.0,7.0,81,0.00,CLR,,0.11,WeatherDisplay:10.37,2013-09-17 19:36:00,
2013-09-17 15:41:00,83.5,77.4,29.94,NE,44,6.9,6.9,82,0.00,CLR,,0.11,WeatherDisplay:10.37,2013-09-17 19:41:00,
2013-09-17 15:46:00,83.6,77.1,29.94,NE,44,4.0,4.0,81,0.00,CLR,,0.11,WeatherDisplay:10.37,2013-09-17 19:46:00,
2013-09-17 15:51:00,83.8,76.6,29.94,NE,42,10.4,10.4,79,0.00,CLR,,0.11,WeatherDisplay:10.37,2013-09-17 19:51:00,
2013-09-17 15:56:00,83.6,76.0,29.94,NE,42,10.4,10.4,78,0.00,CLR,,0.11,WeatherDisplay:10.37,2013-09-17 19:56:00,
2013-09-17 16:01:00,83.6,76.4,29.93,NE,43,3.5,3.5,79,0.00,CLR,,0.11,WeatherDisplay:10.37,2013-09-17 20:01:00,
2013-09-17 16:06:00,83.6,76.4,29.93,NE,42,3.5,3.5,79,0.00,CLR,,0.11,WeatherDisplay:10.37,2013-09-17 20:06:00,
2013-09-17 16:11:00,83.6,76.4,29.93,NE,44,5.0,5.0,79,0.00,CLR,,0.11,WeatherDisplay:10.37,2013-09-17 20:11:00,